Terminal Aerodrome Forecast
Issued by NWS Boston, MA

Home | Current Version | Previous Version | Text Only | Print | Product List | Glossary Off
Versions: 1 2 3 4 5 6 7 8 9 10 11 12 13 14 15 16 17 18 19 20 21 22 23 24 25 26 27 28 29 30 31 32 33 34 35 36 37 38 39 40
000 FTUS41 KBOX 292324 TAFBDL TAF KBDL 292324Z 3000/3106 22007KT P6SM FEW060 SCT250 FM300400 18004KT P6SM SCT250 FM301600 20008KT P6SM BKN060 FM301900 19013G21KT P6SM SHRA SCT040 BKN060 FM302300 21009KT P6SM SCT040 BKN060 FM310100 21005KT P6SM BKN045 FM310300 VRB03KT 2SM BR BKN045 FM310500 21004KT 2SM BR SCT250=

USA.gov is the U.S. government's official web portal to all federal, state and local government web resources and services.